Time;durP1;ratioP1;P1;durP2;ratioP2;P2;SDS_P1;SDS_P2;PMS_P1;PMS_P2;Temp;Humidity;BMP_temperature;BMP_pressure;BME280_temperature;BME280_humidity;BME280_pressure;Samples;Min_cycle;Max_cycle;Signal;HPM_P1;HPM_P2
2022/10/20 00:01:13;;;;;;;;;0.00;0.00;;;;;;;;5014968;28;46759;-88
2022/10/20 00:03:38;;;;;;;;;0.00;0.00;;;;;;;;4993059;28;45513;-89
2022/10/20 00:06:12;;;;;;;;;0.00;0.00;;;;;;;;4995108;28;45450;-90
2022/10/20 00:08:38;;;;;;;;;0.00;0.00;;;;;;;;4977799;28;45600;-89
2022/10/20 00:11:04;;;;;;;;;0.00;0.00;;;;;;;;4976362;28;47219;-89
2022/10/20 00:13:29;;;;;;;;;0.00;0.00;;;;;;;;4995381;28;45359;-89
2022/10/20 00:15:55;;;;;;;;;0.00;0.00;;;;;;;;4977066;28;45387;-89
2022/10/20 00:18:21;;;;;;;;;0.00;0.00;;;;;;;;4994807;28;45395;-89
2022/10/20 00:20:47;;;;;;;;;0.00;0.00;;;;;;;;4976429;28;47288;-89
2022/10/20 00:23:12;;;;;;;;;0.00;0.00;;;;;;;;4977192;28;46104;-89
2022/10/20 00:25:37;;;;;;;;;0.00;0.00;;;;;;;;5004395;28;45334;-89
2022/10/20 00:28:02;;;;;;;;;0.00;0.00;;;;;;;;4996912;28;45540;-89
2022/10/20 00:30:28;;;;;;;;;0.00;0.00;;;;;;;;5014285;28;45407;-89
2022/10/20 00:32:53;;;;;;;;;0.00;0.00;;;;;;;;4983982;28;46130;-89
2022/10/20 00:35:18;;;;;;;;;0.00;0.00;;;;;;;;4994081;28;45456;-89
2022/10/20 00:37:43;;;;;;;;;0.00;0.00;;;;;;;;4977385;28;45521;-89
2022/10/20 00:40:09;;;;;;;;;0.00;0.00;;;;;;;;4993922;28;45348;-89
2022/10/20 00:42:34;;;;;;;;;0.00;0.00;;;;;;;;4976819;28;46479;-89
2022/10/20 00:45:00;;;;;;;;;0.00;0.00;;;;;;;;4976776;28;45455;-90
2022/10/20 00:47:31;;;;;;;;;0.00;0.00;;;;;;;;4986347;28;45725;-89
2022/10/20 00:49:59;;;;;;;;;0.00;0.00;;;;;;;;4995712;28;47120;-89
2022/10/20 00:52:24;;;;;;;;;0.00;0.00;;;;;;;;5013844;28;45526;-89
2022/10/20 00:54:49;;;;;;;;;0.00;0.00;;;;;;;;5013794;28;46039;-89
2022/10/20 00:57:16;;;;;;;;;0.00;0.00;;;;;;;;4996760;28;45560;-89
2022/10/20 00:59:41;;;;;;;;;0.00;0.00;;;;;;;;4994086;28;47575;-89
2022/10/20 01:02:08;;;;;;;;;0.00;0.00;;;;;;;;4976167;28;45633;-89
2022/10/20 01:04:33;;;;;;;;;0.00;0.00;;;;;;;;4976005;28;45496;-89
2022/10/20 01:06:59;;;;;;;;;0.00;0.00;;;;;;;;4976748;28;45387;-90
2022/10/20 01:09:24;;;;;;;;;0.00;0.00;;;;;;;;4976348;28;48624;-90
2022/10/20 01:12:08;;;;;;;;;0.00;0.00;;;;;;;;4993757;28;45680;-90
2022/10/20 01:14:42;;;;;;;;;0.00;0.00;;;;;;;;4976576;28;45435;-90
2022/10/20 01:17:07;;;;;;;;;0.00;0.00;;;;;;;;4993740;28;45717;-89
2022/10/20 01:19:45;;;;;;;;;0.00;0.00;;;;;;;;4993848;28;45397;-90
2022/10/20 01:22:39;;;;;;;;;0.00;0.00;;;;;;;;4994046;28;45653;-89
2022/10/20 01:25:10;;;;;;;;;0.00;0.00;;;;;;;;4878533;29;45573;-89
2022/10/20 01:27:47;;;;;;;;;0.00;0.00;;;;;;;;4879663;28;45550;-89
2022/10/20 01:30:13;;;;;;;;;0.00;0.00;;;;;;;;4881785;29;48304;-90
2022/10/20 01:32:38;;;;;;;;;0.00;0.00;;;;;;;;4894573;29;45490;-89
2022/10/20 01:35:21;;;;;;;;;0.00;0.00;;;;;;;;4878115;29;45681;-89
2022/10/20 01:37:52;;;;;;;;;0.00;0.00;;;;;;;;4876515;29;45456;-89
2022/10/20 01:40:30;;;;;;;;;0.00;0.00;;;;;;;;4894865;28;46508;-89
2022/10/20 01:42:57;;;;;;;;;0.00;0.00;;;;;;;;4898040;28;46122;-89
2022/10/20 01:45:24;;;;;;;;;0.00;0.00;;;;;;;;4914507;28;45647;-89
2022/10/20 01:47:50;;;;;;;;;0.00;0.00;;;;;;;;4897619;28;45382;-89
2022/10/20 01:50:17;;;;;;;;;0.00;0.00;;;;;;;;4897757;28;47875;-89
2022/10/20 01:52:42;;;;;;;;;0.00;0.00;;;;;;;;4898440;28;45758;-89
2022/10/20 01:55:17;;;;;;;;;0.00;0.00;;;;;;;;4914340;28;45756;-89
2022/10/20 01:57:42;;;;;;;;;0.00;0.00;;;;;;;;4900044;28;45405;-89
2022/10/20 02:00:11;;;;;;;;;0.00;0.00;;;;;;;;4917836;28;45587;-89
2022/10/20 02:02:55;;;;;;;;;0.00;0.00;;;;;;;;4993285;28;45466;-88
2022/10/20 02:05:46;;;;;;;;;0.00;0.00;;;;;;;;4997576;28;45442;-89
2022/10/20 02:08:15;;;;;;;;;0.00;0.00;;;;;;;;4978615;28;45400;-90
2022/10/20 02:10:43;;;;;;;;;0.00;0.00;;;;;;;;4996771;28;46450;-89
2022/10/20 02:13:10;;;;;;;;;0.00;0.00;;;;;;;;4978279;28;45716;-89
2022/10/20 02:15:37;;;;;;;;;0.00;0.00;;;;;;;;4979345;28;45617;-89
2022/10/20 02:18:04;;;;;;;;;0.00;0.00;;;;;;;;4979015;28;45514;-89
2022/10/20 02:20:30;;;;;;;;;0.00;0.00;;;;;;;;4996201;28;45478;-89
2022/10/20 02:22:56;;;;;;;;;0.00;0.00;;;;;;;;4996914;28;45496;-89
2022/10/20 02:25:22;;;;;;;;;0.00;0.00;;;;;;;;4992577;28;45737;-89
2022/10/20 02:27:47;;;;;;;;;0.00;0.00;;;;;;;;4998915;28;45436;-89
2022/10/20 02:30:15;;;;;;;;;0.00;0.00;;;;;;;;4997854;28;47306;-89
2022/10/20 02:32:42;;;;;;;;;0.00;0.00;;;;;;;;4997727;28;45936;-90
2022/10/20 02:35:13;;;;;;;;;0.00;0.00;;;;;;;;5017062;28;45448;-89
2022/10/20 02:37:38;;;;;;;;;0.00;0.00;;;;;;;;4999035;28;45467;-89
2022/10/20 02:40:03;;;;;;;;;0.00;0.00;;;;;;;;4998097;28;48452;-89
2022/10/20 02:42:29;;;;;;;;;0.00;0.00;;;;;;;;4997448;28;45845;-90
2022/10/20 02:44:54;;;;;;;;;0.00;0.00;;;;;;;;4999288;28;45370;-89
2022/10/20 02:47:19;;;;;;;;;0.00;0.00;;;;;;;;4997986;28;45446;-89
2022/10/20 02:49:45;;;;;;;;;0.00;0.00;;;;;;;;5016740;28;46182;-90
2022/10/20 02:52:10;;;;;;;;;0.00;0.00;;;;;;;;4993363;28;45558;-90
2022/10/20 02:54:35;;;;;;;;;0.00;0.00;;;;;;;;4996972;28;45751;-90
2022/10/20 02:57:01;;;;;;;;;0.00;0.00;;;;;;;;4978029;28;45491;-89
2022/10/20 02:59:26;;;;;;;;;0.00;0.00;;;;;;;;4997081;28;46473;-89
2022/10/20 03:01:51;;;;;;;;;0.00;0.00;;;;;;;;4995496;28;45281;-89
2022/10/20 03:04:16;;;;;;;;;0.00;0.00;;;;;;;;5002565;28;45260;-89
2022/10/20 03:06:42;;;;;;;;;0.00;0.00;;;;;;;;4978890;28;45655;-90
2022/10/20 03:09:07;;;;;;;;;0.00;0.00;;;;;;;;4996386;28;46339;-89
2022/10/20 03:11:32;;;;;;;;;0.00;0.00;;;;;;;;4995812;28;45304;-89
2022/10/20 03:13:57;;;;;;;;;0.33;0.33;;;;;;;;4978941;28;45568;-88
2022/10/20 03:16:23;;;;;;;;;0.00;0.00;;;;;;;;4978162;28;45505;-89
2022/10/20 03:18:48;;;;;;;;;0.00;0.00;;;;;;;;4996019;28;45385;-89
2022/10/20 03:21:13;;;;;;;;;0.00;0.00;;;;;;;;5010939;28;45369;-90
2022/10/20 03:23:38;;;;;;;;;0.00;0.00;;;;;;;;5016110;28;45578;-89
2022/10/20 03:26:04;;;;;;;;;0.00;0.00;;;;;;;;4997630;28;45545;-89
2022/10/20 03:28:30;;;;;;;;;0.00;0.00;;;;;;;;4998219;28;47100;-89
2022/10/20 03:30:55;;;;;;;;;0.00;0.00;;;;;;;;5004032;28;45492;-89
2022/10/20 03:33:20;;;;;;;;;0.00;0.00;;;;;;;;4977705;28;45458;-89
2022/10/20 03:35:46;;;;;;;;;0.00;0.00;;;;;;;;4995532;28;45980;-90
2022/10/20 03:38:11;;;;;;;;;0.00;0.00;;;;;;;;4996143;28;46492;-90
2022/10/20 03:40:36;;;;;;;;;0.00;0.00;;;;;;;;4994991;28;45426;-89
2022/10/20 03:43:01;;;;;;;;;0.00;0.00;;;;;;;;4978410;28;45398;-90
2022/10/20 03:45:26;;;;;;;;;0.00;0.00;;;;;;;;4978429;28;45509;-90
2022/10/20 03:47:52;;;;;;;;;0.00;0.00;;;;;;;;4977813;28;48114;-90
2022/10/20 03:50:17;;;;;;;;;0.00;0.00;;;;;;;;4977726;28;45534;-91
2022/10/20 03:52:42;;;;;;;;;0.00;0.00;;;;;;;;4978340;28;45340;-90
2022/10/20 03:55:07;;;;;;;;;0.00;0.00;;;;;;;;4978312;28;45457;-90
2022/10/20 03:57:33;;;;;;;;;0.00;0.00;;;;;;;;4995116;28;47965;-91
2022/10/20 03:59:58;;;;;;;;;0.00;0.00;;;;;;;;4993362;28;45858;-91
2022/10/20 04:02:29;;;;;;;;;0.00;0.00;;;;;;;;4997284;28;45633;-91
2022/10/20 04:04:54;;;;;;;;;0.00;0.00;;;;;;;;4998154;28;45671;-91
2022/10/20 04:07:19;;;;;;;;;0.00;0.00;;;;;;;;4997025;28;48461;-90
2022/10/20 04:09:45;;;;;;;;;0.00;0.00;;;;;;;;5015595;28;45425;-89
2022/10/20 04:12:10;;;;;;;;;0.00;0.00;;;;;;;;4994283;28;45446;-89
2022/10/20 04:14:35;;;;;;;;;0.00;0.00;;;;;;;;4976192;28;45543;-89
2022/10/20 04:17:00;;;;;;;;;0.00;0.00;;;;;;;;4976824;28;47395;-89
2022/10/20 04:19:25;;;;;;;;;0.00;0.00;;;;;;;;4976806;28;45839;-89
2022/10/20 04:21:50;;;;;;;;;0.00;0.00;;;;;;;;4994850;28;45722;-89
2022/10/20 04:24:16;;;;;;;;;0.00;0.00;;;;;;;;4995203;28;45418;-90
2022/10/20 04:26:41;;;;;;;;;0.00;0.00;;;;;;;;4976784;28;47121;-90
2022/10/20 04:29:06;;;;;;;;;0.00;0.00;;;;;;;;4976985;28;45922;-90
2022/10/20 04:31:31;;;;;;;;;0.00;0.00;;;;;;;;4994333;28;45445;-89
2022/10/20 04:33:56;;;;;;;;;0.00;0.00;;;;;;;;5015099;28;45362;-90
2022/10/20 04:36:22;;;;;;;;;0.00;0.00;;;;;;;;4996518;28;46923;-89
2022/10/20 04:38:47;;;;;;;;;0.00;0.00;;;;;;;;5015112;28;45609;-90
2022/10/20 04:41:12;;;;;;;;;0.00;0.00;;;;;;;;5006473;28;45494;-89
2022/10/20 04:43:37;;;;;;;;;0.00;0.00;;;;;;;;4976920;28;45464;-90
2022/10/20 04:46:03;;;;;;;;;0.00;0.00;;;;;;;;4994722;28;46270;-89
2022/10/20 04:48:29;;;;;;;;;0.00;0.00;;;;;;;;4976638;28;45457;-90
2022/10/20 04:51:01;;;;;;;;;0.00;0.00;;;;;;;;4994909;28;45356;-89
2022/10/20 04:53:26;;;;;;;;;0.00;0.00;;;;;;;;4998650;28;45517;-90
2022/10/20 04:55:55;;;;;;;;;0.00;0.00;;;;;;;;5014362;28;45613;-90
2022/10/20 04:58:21;;;;;;;;;0.00;0.00;;;;;;;;4995500;28;45385;-89
2022/10/20 05:00:46;;;;;;;;;0.00;0.00;;;;;;;;4996904;28;45788;-89
2022/10/20 05:03:11;;;;;;;;;0.00;0.00;;;;;;;;5004944;28;45535;-89
2022/10/20 05:05:36;;;;;;;;;0.00;0.00;;;;;;;;4977160;28;48562;-89
2022/10/20 05:08:02;;;;;;;;;0.00;0.00;;;;;;;;4983263;28;45359;-89
2022/10/20 05:10:27;;;;;;;;;0.00;0.00;;;;;;;;5006746;28;45364;-89
2022/10/20 05:12:52;;;;;;;;;0.00;0.00;;;;;;;;4976928;28;45550;-90
2022/10/20 05:15:17;;;;;;;;;0.00;0.00;;;;;;;;4994680;28;46620;-89
2022/10/20 05:17:42;;;;;;;;;0.00;0.00;;;;;;;;4976139;28;45804;-89
2022/10/20 05:20:08;;;;;;;;;0.00;0.00;;;;;;;;4991080;28;46255;-89
2022/10/20 05:22:33;;;;;;;;;0.00;0.00;;;;;;;;4993473;28;45522;-92
2022/10/20 05:24:58;;;;;;;;;0.00;0.00;;;;;;;;4991708;28;48423;-93
2022/10/20 05:27:25;;;;;;;;;0.00;0.00;;;;;;;;4994403;28;46225;-90
2022/10/20 05:29:50;;;;;;;;;0.00;0.00;;;;;;;;4981198;28;45500;-89
2022/10/20 05:32:15;;;;;;;;;0.00;0.00;;;;;;;;4998196;28;45477;-90
2022/10/20 05:34:40;;;;;;;;;0.00;0.00;;;;;;;;4980035;28;48324;-88
2022/10/20 05:37:05;;;;;;;;;0.00;0.00;;;;;;;;4997183;28;45459;-88
2022/10/20 05:39:31;;;;;;;;;0.00;0.00;;;;;;;;4981075;28;45659;-89
2022/10/20 05:41:56;;;;;;;;;0.00;0.00;;;;;;;;4979505;28;45662;-89
2022/10/20 05:44:21;;;;;;;;;0.00;0.00;;;;;;;;4997618;28;45592;-89
2022/10/20 05:46:46;;;;;;;;;0.00;0.00;;;;;;;;4997099;28;45674;-89
2022/10/20 05:49:13;;;;;;;;;0.00;0.00;;;;;;;;4998052;28;45439;-89
2022/10/20 05:51:38;;;;;;;;;0.00;0.00;;;;;;;;4979361;28;45610;-89
2022/10/20 05:54:03;;;;;;;;;0.00;0.00;;;;;;;;4979888;28;48171;-89
2022/10/20 05:56:29;;;;;;;;;0.00;0.00;;;;;;;;4978542;28;45851;-89
2022/10/20 05:58:54;;;;;;;;;0.00;0.00;;;;;;;;4997783;28;45312;-88
2022/10/20 06:01:23;;;;;;;;;0.00;0.00;;;;;;;;4979646;28;45773;-89
2022/10/20 06:03:49;;;;;;;;;0.00;0.00;;;;;;;;4996849;28;46461;-89
2022/10/20 06:06:15;;;;;;;;;0.00;0.00;;;;;;;;4979043;28;45580;-89
2022/10/20 06:08:40;;;;;;;;;0.00;0.00;;;;;;;;4979785;28;45451;-90
2022/10/20 06:11:07;;;;;;;;;0.00;0.00;;;;;;;;4979487;28;45643;-90
2022/10/20 06:13:32;;;;;;;;;0.00;0.00;;;;;;;;4997019;28;45511;-90
2022/10/20 06:16:05;;;;;;;;;0.25;0.25;;;;;;;;4996961;28;45417;-88
2022/10/20 06:18:30;;;;;;;;;0.00;0.00;;;;;;;;4999419;28;45443;-90
2022/10/20 06:21:03;;;;;;;;;0.00;0.00;;;;;;;;4999815;28;45336;-89
2022/10/20 06:23:28;;;;;;;;;0.00;0.00;;;;;;;;4981588;28;47389;-89
2022/10/20 06:25:53;;;;;;;;;0.00;0.00;;;;;;;;4979866;28;45729;-87
2022/10/20 06:28:18;;;;;;;;;0.00;0.00;;;;;;;;4998096;28;45818;-88
2022/10/20 06:30:44;;;;;;;;;0.00;0.00;;;;;;;;4990890;28;45367;-84
2022/10/20 06:33:11;;;;;;;;;0.00;0.00;;;;;;;;5017140;28;46217;-85
2022/10/20 06:35:36;;;;;;;;;0.00;0.00;;;;;;;;4999580;28;45509;-84
2022/10/20 06:38:01;;;;;;;;;0.00;0.00;;;;;;;;4999232;28;45535;-84
2022/10/20 06:40:26;;;;;;;;;0.00;0.00;;;;;;;;4999597;28;45458;-85
2022/10/20 06:42:51;;;;;;;;;0.00;0.00;;;;;;;;5014763;28;46310;-84
2022/10/20 06:45:17;;;;;;;;;0.00;0.00;;;;;;;;5015752;28;45405;-84
2022/10/20 06:47:42;;;;;;;;;0.00;0.00;;;;;;;;4997698;28;45749;-84
2022/10/20 06:50:07;;;;;;;;;0.00;0.00;;;;;;;;4998480;28;45391;-84
2022/10/20 06:52:32;;;;;;;;;0.00;0.00;;;;;;;;4997162;28;48512;-85
2022/10/20 06:54:58;;;;;;;;;0.00;0.00;;;;;;;;5016205;28;45605;-84
2022/10/20 06:57:23;;;;;;;;;0.00;0.00;;;;;;;;4997661;28;45459;-85
2022/10/20 06:59:48;;;;;;;;;0.00;0.00;;;;;;;;5005790;28;45551;-86
2022/10/20 07:02:13;;;;;;;;;0.00;0.00;;;;;;;;4986395;28;47194;-86
2022/10/20 07:04:39;;;;;;;;;0.00;0.00;;;;;;;;4984243;28;45939;-85
2022/10/20 07:07:04;;;;;;;;;0.00;0.00;;;;;;;;4998941;28;45543;-85
2022/10/20 07:09:29;;;;;;;;;0.00;0.00;;;;;;;;5004143;28;45417;-85
2022/10/20 07:11:54;;;;;;;;;0.00;0.00;;;;;;;;4985603;28;48230;-85
2022/10/20 07:14:19;;;;;;;;;0.00;0.00;;;;;;;;4983980;28;45296;-85
2022/10/20 07:16:45;;;;;;;;;0.00;0.00;;;;;;;;5013545;28;45318;-84
2022/10/20 07:19:10;;;;;;;;;0.00;0.00;;;;;;;;5000680;28;45403;-84
2022/10/20 07:21:35;;;;;;;;;0.00;0.00;;;;;;;;4987237;28;48308;-85
2022/10/20 07:24:01;;;;;;;;;0.00;0.00;;;;;;;;4997522;28;45579;-84
2022/10/20 07:26:27;;;;;;;;;0.00;0.00;;;;;;;;5007510;28;45974;-85
2022/10/20 07:28:55;;;;;;;;;0.00;0.00;;;;;;;;5008219;28;45544;-85
2022/10/20 07:31:22;;;;;;;;;0.00;0.00;;;;;;;;4986530;28;47228;-84
2022/10/20 07:33:47;;;;;;;;;0.00;0.00;;;;;;;;4982456;28;45778;-84
2022/10/20 07:36:16;;;;;;;;;0.00;0.00;;;;;;;;4979566;28;45476;-85
2022/10/20 07:38:42;;;;;;;;;0.00;0.00;;;;;;;;4986064;28;45458;-84
2022/10/20 07:41:08;;;;;;;;;0.00;0.00;;;;;;;;4988460;28;46317;-85
2022/10/20 07:43:33;;;;;;;;;0.00;0.00;;;;;;;;4990952;28;45288;-84
2022/10/20 07:45:58;;;;;;;;;0.00;0.00;;;;;;;;4977458;28;46559;-84
2022/10/20 07:48:23;;;;;;;;;0.00;0.00;;;;;;;;4979244;28;45400;-84
2022/10/20 07:50:49;;;;;;;;;0.00;0.00;;;;;;;;4991437;28;48374;-84
2022/10/20 07:53:14;;;;;;;;;0.00;0.00;;;;;;;;5009411;28;45430;-83
2022/10/20 07:55:39;;;;;;;;;0.00;0.00;;;;;;;;4987784;28;45482;-84
2022/10/20 07:58:04;;;;;;;;;0.00;0.00;;;;;;;;5002752;28;45457;-84
2022/10/20 08:00:29;;;;;;;;;0.00;0.00;;;;;;;;4982938;28;48032;-84
2022/10/20 08:02:55;;;;;;;;;0.00;0.00;;;;;;;;4995691;28;45767;-84
2022/10/20 08:05:20;;;;;;;;;0.00;0.00;;;;;;;;5004877;28;46146;-83
2022/10/20 08:07:45;;;;;;;;;0.00;0.00;;;;;;;;5009769;28;45788;-84
2022/10/20 08:10:10;;;;;;;;;0.00;0.00;;;;;;;;5005389;28;46897;-84
2022/10/20 08:12:37;;;;;;;;;0.00;0.00;;;;;;;;5002395;28;45429;-84
2022/10/20 08:15:02;;;;;;;;;0.00;0.00;;;;;;;;5005952;28;46008;-84
2022/10/20 08:17:27;;;;;;;;;0.00;0.00;;;;;;;;4985175;28;45603;-84
2022/10/20 08:19:52;;;;;;;;;0.00;0.00;;;;;;;;5006585;28;45450;-83
2022/10/20 08:22:18;;;;;;;;;0.00;0.00;;;;;;;;5007798;28;45750;-84
2022/10/20 08:24:44;;;;;;;;;0.00;0.00;;;;;;;;5011338;28;46798;-84
2022/10/20 08:27:09;;;;;;;;;0.00;0.00;;;;;;;;5006793;28;45375;-83
2022/10/20 08:29:35;;;;;;;;;0.00;0.00;;;;;;;;4992972;28;46223;-84
2022/10/20 08:32:00;;;;;;;;;0.00;0.00;;;;;;;;4984631;28;46373;-84
2022/10/20 08:34:25;;;;;;;;;0.00;0.00;;;;;;;;5006134;28;45402;-84
2022/10/20 08:36:50;;;;;;;;;0.00;0.00;;;;;;;;4995798;28;45434;-84
2022/10/20 08:39:16;;;;;;;;;0.00;0.00;;;;;;;;5012965;28;46372;-85
2022/10/20 08:41:43;;;;;;;;;0.00;0.00;;;;;;;;5011372;28;45713;-84
2022/10/20 08:44:14;;;;;;;;;0.00;0.00;;;;;;;;5000226;28;45367;-83
2022/10/20 08:46:40;;;;;;;;;0.00;0.00;;;;;;;;5010354;28;45534;-83
2022/10/20 08:49:09;;;;;;;;;0.00;0.00;;;;;;;;4987098;28;46102;-85
2022/10/20 08:51:37;;;;;;;;;0.00;0.00;;;;;;;;4986885;28;45889;-84
2022/10/20 08:54:03;;;;;;;;;0.00;0.00;;;;;;;;4983003;28;46458;-86
2022/10/20 08:56:29;;;;;;;;;0.00;0.00;;;;;;;;5010606;28;45483;-84
2022/10/20 08:58:54;;;;;;;;;0.00;0.00;;;;;;;;4978414;28;47169;-83
2022/10/20 09:01:21;;;;;;;;;0.00;0.00;;;;;;;;4988151;28;45622;-85
2022/10/20 09:03:51;;;;;;;;;0.00;0.00;;;;;;;;4985200;28;45442;-85
2022/10/20 09:06:17;;;;;;;;;0.00;0.00;;;;;;;;5002905;28;45473;-85
2022/10/20 09:08:42;;;;;;;;;0.00;0.00;;;;;;;;5005313;28;45683;-85
2022/10/20 09:11:10;;;;;;;;;0.00;0.00;;;;;;;;4989132;28;45988;-86
2022/10/20 09:13:36;;;;;;;;;0.00;0.00;;;;;;;;4994467;28;45523;-83
2022/10/20 09:16:12;;;;;;;;;0.00;0.00;;;;;;;;5002966;28;45596;-86
2022/10/20 09:18:37;;;;;;;;;0.00;0.00;;;;;;;;5003329;28;46567;-85
2022/10/20 09:21:20;;;;;;;;;0.00;0.00;;;;;;;;4985153;28;45934;-85
2022/10/20 09:23:49;;;;;;;;;0.00;0.00;;;;;;;;4998106;28;45363;-85
2022/10/20 09:26:16;;;;;;;;;0.00;0.00;;;;;;;;4982618;28;45691;-85
2022/10/20 09:28:41;;;;;;;;;0.00;0.00;;;;;;;;4982971;28;47534;-86
2022/10/20 09:31:19;;;;;;;;;0.00;0.00;;;;;;;;5005484;28;45410;-86
2022/10/20 09:33:46;;;;;;;;;0.00;0.00;;;;;;;;4997268;28;45883;-85
2022/10/20 09:36:12;;;;;;;;;0.00;0.00;;;;;;;;5003325;28;45399;-85
2022/10/20 09:38:41;;;;;;;;;0.00;0.00;;;;;;;;5002211;28;45552;-85
2022/10/20 09:41:10;;;;;;;;;0.00;0.00;;;;;;;;4985232;28;46007;-86
2022/10/20 09:43:39;;;;;;;;;0.00;0.00;;;;;;;;4979338;28;45542;-85
2022/10/20 09:46:06;;;;;;;;;1.67;1.67;;;;;;;;5001997;28;45430;-86
2022/10/20 09:48:34;;;;;;;;;0.00;0.00;;;;;;;;5009656;28;45823;-85
2022/10/20 09:50:59;;;;;;;;;0.00;0.00;;;;;;;;5002674;28;45956;-85
2022/10/20 09:53:48;;;;;;;;;0.00;0.00;;;;;;;;4985233;28;45491;-85
2022/10/20 09:56:21;;;;;;;;;0.00;0.00;;;;;;;;4985374;28;45407;-86
2022/10/20 09:58:47;;;;;;;;;0.00;0.00;;;;;;;;4983473;28;48645;-85
2022/10/20 10:01:14;;;;;;;;;0.00;0.00;;;;;;;;4988088;28;45434;-85
2022/10/20 10:03:44;;;;;;;;;0.00;0.00;;;;;;;;5006530;28;45450;-85
2022/10/20 10:06:28;;;;;;;;;0.00;0.00;;;;;;;;4980887;28;45604;-85
2022/10/20 10:08:54;;;;;;;;;0.00;0.00;;;;;;;;5007868;28;46384;-86
2022/10/20 10:11:20;;;;;;;;;0.00;0.00;;;;;;;;4974666;28;45511;-85
2022/10/20 10:13:47;;;;;;;;;0.00;0.00;;;;;;;;4990017;28;45454;-85
2022/10/20 10:16:14;;;;;;;;;0.00;0.00;;;;;;;;4988202;28;45809;-86
2022/10/20 10:18:40;;;;;;;;;0.00;0.00;;;;;;;;5017015;28;46503;-86
2022/10/20 10:21:07;;;;;;;;;0.00;0.00;;;;;;;;5020917;28;45519;-88
2022/10/20 10:23:35;;;;;;;;;0.00;0.00;;;;;;;;5017409;28;45674;-86
2022/10/20 10:26:00;;;;;;;;;0.00;0.00;;;;;;;;4989279;28;45439;-87
2022/10/20 10:28:33;;;;;;;;;0.00;0.00;;;;;;;;5012024;28;45513;-85
2022/10/20 10:31:05;;;;;;;;;0.00;0.00;;;;;;;;5009095;28;45544;-85
2022/10/20 10:33:32;;;;;;;;;0.00;0.00;;;;;;;;4990537;28;45520;-88
2022/10/20 10:35:57;;;;;;;;;0.00;0.00;;;;;;;;5015627;28;45501;-85
2022/10/20 10:38:22;;;;;;;;;0.00;0.00;;;;;;;;5006763;28;45582;-85
2022/10/20 10:41:03;;;;;;;;;0.00;0.00;;;;;;;;4985894;28;45542;-85
2022/10/20 10:43:31;;;;;;;;;0.00;0.00;;;;;;;;5004450;28;45467;-88
2022/10/20 10:46:04;;;;;;;;;0.00;0.00;;;;;;;;4999161;28;45469;-85
2022/10/20 10:48:39;;;;;;;;;0.00;0.00;;;;;;;;5005509;28;46414;-88
2022/10/20 10:51:17;;;;;;;;;0.00;0.00;;;;;;;;4988701;28;45866;-87
2022/10/20 10:54:02;;;;;;;;;0.00;0.00;;;;;;;;5003612;28;45480;-85
2022/10/20 10:56:57;;;;;;;;;0.00;0.00;;;;;;;;4990908;28;45758;-91
2022/10/20 10:59:32;;;;;;;;;0.00;0.00;;;;;;;;4963325;28;47868;-90
2022/10/20 11:02:16;;;;;;;;;0.00;0.00;;;;;;;;4993915;28;45448;-90
2022/10/20 11:05:04;;;;;;;;;0.00;0.00;;;;;;;;4988781;28;45510;-90
2022/10/20 11:07:52;;;;;;;;;0.00;0.00;;;;;;;;4988034;28;45494;-91
2022/10/20 11:10:36;;;;;;;;;0.00;0.00;;;;;;;;4982159;28;47260;-90
2022/10/20 11:13:02;;;;;;;;;0.00;0.00;;;;;;;;5014791;28;45421;-90
2022/10/20 11:15:27;;;;;;;;;0.00;0.00;;;;;;;;4991914;28;45244;-92
2022/10/20 11:18:08;;;;;;;;;0.00;0.00;;;;;;;;5002574;28;45701;-90
2022/10/20 11:20:56;;;;;;;;;0.00;0.00;;;;;;;;5009256;28;45716;-89
2022/10/20 11:23:24;;;;;;;;;0.00;0.00;;;;;;;;4957835;28;45617;-89
2022/10/20 11:25:49;;;;;;;;;0.00;0.00;;;;;;;;4955130;28;45538;-91
2022/10/20 11:28:28;;;;;;;;;0.00;0.00;;;;;;;;4954525;28;45506;-89
2022/10/20 11:30:55;;;;;;;;;0.00;0.00;;;;;;;;4940425;28;47216;-89
2022/10/20 11:33:23;;;;;;;;;0.00;0.00;;;;;;;;4939425;28;46174;-89
2022/10/20 11:35:53;;;;;;;;;0.00;0.00;;;;;;;;4963079;28;45538;-90
2022/10/20 11:38:24;;;;;;;;;0.00;0.00;;;;;;;;4940816;28;45828;-90
2022/10/20 11:40:57;;;;;;;;;0.00;0.00;;;;;;;;4938477;28;47928;-89
2022/10/20 11:43:28;;;;;;;;;0.00;0.00;;;;;;;;4956674;28;45721;-91
2022/10/20 11:46:02;;;;;;;;;0.00;0.00;;;;;;;;4955743;28;45722;-89
2022/10/20 11:48:34;;;;;;;;;0.00;0.00;;;;;;;;4938267;28;45456;-89
2022/10/20 11:50:59;;;;;;;;;0.00;0.00;;;;;;;;4948523;28;47086;-89
2022/10/20 11:53:44;;;;;;;;;0.00;0.00;;;;;;;;4943932;28;45988;-89
2022/10/20 11:56:33;;;;;;;;;0.00;0.00;;;;;;;;4955204;28;45546;-89
2022/10/20 11:59:19;;;;;;;;;0.00;0.00;;;;;;;;4916573;28;45477;-89
2022/10/20 12:01:44;;;;;;;;;0.00;0.00;;;;;;;;4948842;28;48205;-89
2022/10/20 12:04:15;;;;;;;;;0.00;0.00;;;;;;;;4963588;28;45544;-91
2022/10/20 12:06:40;;;;;;;;;0.00;0.00;;;;;;;;4955724;28;45629;-92
2022/10/20 12:09:11;;;;;;;;;0.00;0.00;;;;;;;;4970434;28;45520;-91
2022/10/20 12:11:56;;;;;;;;;0.00;0.00;;;;;;;;4962188;28;45515;-91
2022/10/20 12:14:35;;;;;;;;;0.00;0.00;;;;;;;;4940464;28;45469;-91
2022/10/20 12:17:00;;;;;;;;;0.00;0.00;;;;;;;;4951327;28;45522;-90
2022/10/20 12:19:33;;;;;;;;;0.00;0.00;;;;;;;;4969518;28;45699;-91
2022/10/20 12:22:13;;;;;;;;;0.00;0.00;;;;;;;;4968125;28;45867;-91
2022/10/20 12:24:40;;;;;;;;;0.00;0.00;;;;;;;;4962608;28;45598;-90
2022/10/20 12:27:08;;;;;;;;;0.00;0.00;;;;;;;;4950432;28;45485;-91
2022/10/20 12:29:33;;;;;;;;;0.00;0.00;;;;;;;;4951474;28;45388;-91
2022/10/20 12:32:19;;;;;;;;;0.00;0.00;;;;;;;;4970601;28;47150;-91
2022/10/20 12:34:45;;;;;;;;;0.00;0.00;;;;;;;;4957322;28;45634;-92
2022/10/20 12:37:16;;;;;;;;;0.00;0.00;;;;;;;;4987272;28;45450;-91
2022/10/20 12:39:41;;;;;;;;;0.00;0.00;;;;;;;;5013635;28;45614;-91
2022/10/20 12:42:17;;;;;;;;;0.00;0.00;;;;;;;;5007450;28;46397;-91
2022/10/20 12:44:43;;;;;;;;;0.00;0.00;;;;;;;;5006302;28;45320;-92
2022/10/20 12:47:09;;;;;;;;;0.00;0.00;;;;;;;;4990369;28;45344;-90
2022/10/20 12:49:36;;;;;;;;;0.00;0.00;;;;;;;;5016696;28;45453;-91
2022/10/20 12:52:02;;;;;;;;;0.00;0.00;;;;;;;;5014267;28;45363;-91
2022/10/20 12:54:33;;;;;;;;;0.00;0.00;;;;;;;;4992531;28;45355;-91
2022/10/20 12:57:00;;;;;;;;;0.00;0.00;;;;;;;;5007776;28;45364;-90
2022/10/20 12:59:28;;;;;;;;;0.00;0.00;;;;;;;;5000557;28;45573;-91
2022/10/20 13:02:09;;;;;;;;;0.00;0.00;;;;;;;;4995913;28;48148;-89
2022/10/20 13:05:00;;;;;;;;;0.00;0.00;;;;;;;;4992354;28;45506;-90
2022/10/20 13:07:44;;;;;;;;;0.00;0.00;;;;;;;;4999998;28;44735;-92
2022/10/20 13:10:29;;;;;;;;;0.00;0.00;;;;;;;;4983587;28;45447;-91
2022/10/20 13:12:57;;;;;;;;;0.00;0.00;;;;;;;;4987509;28;48532;-91
2022/10/20 13:15:25;;;;;;;;;0.00;0.00;;;;;;;;5010828;28;45344;-93
2022/10/20 13:17:54;;;;;;;;;0.00;0.00;;;;;;;;4986093;28;45845;-90
2022/10/20 13:20:24;;;;;;;;;0.00;0.00;;;;;;;;5004137;28;45515;-91
2022/10/20 13:22:51;;;;;;;;;0.00;0.00;;;;;;;;4994206;28;47608;-90
2022/10/20 13:25:34;;;;;;;;;0.00;0.00;;;;;;;;5007965;28;45672;-88
2022/10/20 13:28:13;;;;;;;;;0.00;0.00;;;;;;;;4988210;28;45562;-90
2022/10/20 13:30:51;;;;;;;;;0.00;0.00;;;;;;;;4991129;28;45581;-91
2022/10/20 13:33:21;;;;;;;;;0.00;0.00;;;;;;;;5010444;28;46361;-90
2022/10/20 13:36:13;;;;;;;;;0.00;0.00;;;;;;;;4994151;28;45944;-90
2022/10/20 13:38:41;;;;;;;;;0.00;0.00;;;;;;;;4923941;28;45421;-90
2022/10/20 13:41:12;;;;;;;;;0.00;0.00;;;;;;;;4910080;28;45599;-91
2022/10/20 13:43:46;;;;;;;;;0.00;0.00;;;;;;;;4923128;28;45732;-91
2022/10/20 13:46:21;;;;;;;;;0.00;0.00;;;;;;;;4906885;28;45985;-91
2022/10/20 13:48:46;;;;;;;;;0.00;0.00;;;;;;;;4928019;28;45447;-90
2022/10/20 13:51:18;;;;;;;;;0.00;0.00;;;;;;;;4906865;28;45451;-90
2022/10/20 13:53:46;;;;;;;;;0.00;0.00;;;;;;;;4927086;28;46267;-90
2022/10/20 13:56:14;;;;;;;;;0.00;0.00;;;;;;;;4933810;28;45434;-90
2022/10/20 13:58:39;;;;;;;;;0.00;0.00;;;;;;;;4912317;28;45558;-90
2022/10/20 14:01:05;;;;;;;;;0.00;0.00;;;;;;;;4935686;28;46686;-88
2022/10/20 14:03:31;;;;;;;;;0.00;0.00;;;;;;;;4915611;28;47050;-89
2022/10/20 14:05:58;;;;;;;;;0.00;0.00;;;;;;;;4918334;28;46000;-90
2022/10/20 14:08:23;;;;;;;;;0.00;0.00;;;;;;;;4929984;28;45554;-89
2022/10/20 14:10:49;;;;;;;;;0.00;0.00;;;;;;;;4926253;28;45610;-90
2022/10/20 14:13:22;;;;;;;;;0.00;0.00;;;;;;;;4933653;28;46189;-90
2022/10/20 14:15:52;;;;;;;;;0.00;0.00;;;;;;;;4980412;28;45513;-89
2022/10/20 14:18:28;;;;;;;;;0.00;0.00;;;;;;;;5007197;28;45433;-89
2022/10/20 14:21:14;;;;;;;;;0.00;0.00;;;;;;;;4987189;28;45810;-89
2022/10/20 14:23:41;;;;;;;;;0.00;0.00;;;;;;;;4997202;28;48685;-91
2022/10/20 14:26:11;;;;;;;;;0.00;0.00;;;;;;;;5019880;28;45466;-88
2022/10/20 14:28:38;;;;;;;;;0.00;0.00;;;;;;;;4992069;28;45426;-94
2022/10/20 14:31:04;;;;;;;;;0.00;0.00;;;;;;;;4990446;28;45362;-89
2022/10/20 14:33:31;;;;;;;;;0.00;0.00;;;;;;;;4997581;28;47011;-87
2022/10/20 14:35:58;;;;;;;;;0.00;0.00;;;;;;;;5001627;28;44879;-90
2022/10/20 14:38:27;;;;;;;;;0.00;0.00;;;;;;;;4994011;28;45768;-86
2022/10/20 14:40:54;;;;;;;;;0.00;0.00;;;;;;;;4984811;28;45525;-88
2022/10/20 14:43:29;;;;;;;;;0.00;0.00;;;;;;;;4984445;28;47392;-87
2022/10/20 14:45:58;;;;;;;;;0.00;0.00;;;;;;;;5001923;28;45370;-92
2022/10/20 14:48:24;;;;;;;;;0.00;0.00;;;;;;;;4985452;28;45469;-92
2022/10/20 14:50:50;;;;;;;;;0.00;0.00;;;;;;;;4995778;28;45536;-89